sensor_id;sensor_type;location;lat;lon;timestamp;P1;durP1;ratioP1;P2;durP2;ratioP2
38937;SDS011;24727;51.974;20.868;2023-06-04T00:01:14;7.63;;;3.72;;
38937;SDS011;24727;51.974;20.868;2023-06-04T00:03:41;11.70;;;3.50;;
38937;SDS011;24727;51.974;20.868;2023-06-04T00:06:07;6.97;;;3.78;;
38937;SDS011;24727;51.974;20.868;2023-06-04T00:08:33;5.63;;;3.53;;
38937;SDS011;24727;51.974;20.868;2023-06-04T00:11:00;9.05;;;4.65;;
38937;SDS011;24727;51.974;20.868;2023-06-04T00:13:27;7.90;;;4.55;;
38937;SDS011;24727;51.974;20.868;2023-06-04T00:15:53;8.13;;;3.35;;
38937;SDS011;24727;51.974;20.868;2023-06-04T00:18:19;6.50;;;3.67;;
38937;SDS011;24727;51.974;20.868;2023-06-04T00:20:45;7.13;;;4.07;;
38937;SDS011;24727;51.974;20.868;2023-06-04T00:23:11;6.55;;;3.80;;
38937;SDS011;24727;51.974;20.868;2023-06-04T00:25:37;6.47;;;3.97;;
38937;SDS011;24727;51.974;20.868;2023-06-04T00:28:04;6.95;;;3.50;;
38937;SDS011;24727;51.974;20.868;2023-06-04T00:30:30;6.47;;;3.80;;
38937;SDS011;24727;51.974;20.868;2023-06-04T00:32:57;7.82;;;3.83;;
38937;SDS011;24727;51.974;20.868;2023-06-04T00:35:23;7.55;;;4.20;;
38937;SDS011;24727;51.974;20.868;2023-06-04T00:37:49;11.15;;;3.78;;
38937;SDS011;24727;51.974;20.868;2023-06-04T00:40:15;6.47;;;3.75;;
38937;SDS011;24727;51.974;20.868;2023-06-04T00:42:43;8.00;;;4.15;;
38937;SDS011;24727;51.974;20.868;2023-06-04T00:45:10;6.40;;;3.75;;
38937;SDS011;24727;51.974;20.868;2023-06-04T00:47:40;5.20;;;3.28;;
38937;SDS011;24727;51.974;20.868;2023-06-04T00:50:07;6.03;;;3.55;;
38937;SDS011;24727;51.974;20.868;2023-06-04T00:52:33;7.82;;;4.03;;
38937;SDS011;24727;51.974;20.868;2023-06-04T00:55:00;7.13;;;3.75;;
38937;SDS011;24727;51.974;20.868;2023-06-04T00:57:28;7.00;;;3.70;;
38937;SDS011;24727;51.974;20.868;2023-06-04T00:59:54;7.97;;;3.80;;
38937;SDS011;24727;51.974;20.868;2023-06-04T01:02:21;5.97;;;3.55;;
38937;SDS011;24727;51.974;20.868;2023-06-04T01:07:33;9.15;;;3.83;;
38937;SDS011;24727;51.974;20.868;2023-06-04T01:10:02;7.40;;;3.65;;
38937;SDS011;24727;51.974;20.868;2023-06-04T01:12:29;10.75;;;3.38;;
38937;SDS011;24727;51.974;20.868;2023-06-04T01:14:54;8.02;;;3.88;;
38937;SDS011;24727;51.974;20.868;2023-06-04T01:25:44;6.35;;;3.42;;
38937;SDS011;24727;51.974;20.868;2023-06-04T01:28:11;5.65;;;3.60;;
38937;SDS011;24727;51.974;20.868;2023-06-04T01:30:42;7.10;;;3.55;;
38937;SDS011;24727;51.974;20.868;2023-06-04T01:33:14;7.38;;;4.00;;
38937;SDS011;24727;51.974;20.868;2023-06-04T01:35:41;8.55;;;3.75;;
38937;SDS011;24727;51.974;20.868;2023-06-04T01:38:08;7.32;;;4.40;;
38937;SDS011;24727;51.974;20.868;2023-06-04T01:40:34;7.85;;;3.95;;
38937;SDS011;24727;51.974;20.868;2023-06-04T01:43:01;6.68;;;3.75;;
38937;SDS011;24727;51.974;20.868;2023-06-04T01:45:28;6.05;;;3.88;;
38937;SDS011;24727;51.974;20.868;2023-06-04T01:47:55;7.60;;;4.03;;
38937;SDS011;24727;51.974;20.868;2023-06-04T01:50:22;6.65;;;4.03;;
38937;SDS011;24727;51.974;20.868;2023-06-04T01:52:49;7.25;;;4.38;;
38937;SDS011;24727;51.974;20.868;2023-06-04T01:55:16;9.23;;;4.20;;
38937;SDS011;24727;51.974;20.868;2023-06-04T01:57:43;6.03;;;4.13;;
38937;SDS011;24727;51.974;20.868;2023-06-04T02:00:11;6.05;;;4.38;;
38937;SDS011;24727;51.974;20.868;2023-06-04T02:02:38;7.20;;;4.40;;
38937;SDS011;24727;51.974;20.868;2023-06-04T02:05:07;8.15;;;4.63;;
38937;SDS011;24727;51.974;20.868;2023-06-04T02:07:35;9.60;;;4.63;;
38937;SDS011;24727;51.974;20.868;2023-06-04T02:10:08;9.95;;;4.03;;
38937;SDS011;24727;51.974;20.868;2023-06-04T02:12:38;8.50;;;3.83;;
38937;SDS011;24727;51.974;20.868;2023-06-04T02:15:06;8.77;;;4.10;;
38937;SDS011;24727;51.974;20.868;2023-06-04T02:17:35;8.63;;;4.72;;
38937;SDS011;24727;51.974;20.868;2023-06-04T02:20:05;8.48;;;4.80;;
38937;SDS011;24727;51.974;20.868;2023-06-04T02:22:32;6.32;;;4.07;;
38937;SDS011;24727;51.974;20.868;2023-06-04T02:24:58;9.05;;;4.30;;
38937;SDS011;24727;51.974;20.868;2023-06-04T02:27:24;6.05;;;3.90;;
38937;SDS011;24727;51.974;20.868;2023-06-04T02:29:50;5.40;;;3.20;;
38937;SDS011;24727;51.974;20.868;2023-06-04T02:32:16;5.95;;;4.38;;
38937;SDS011;24727;51.974;20.868;2023-06-04T02:34:42;5.30;;;3.70;;
38937;SDS011;24727;51.974;20.868;2023-06-04T02:37:09;5.40;;;3.70;;
38937;SDS011;24727;51.974;20.868;2023-06-04T02:39:35;6.60;;;4.00;;
38937;SDS011;24727;51.974;20.868;2023-06-04T02:42:01;7.95;;;4.03;;
38937;SDS011;24727;51.974;20.868;2023-06-04T02:44:27;6.75;;;3.90;;
38937;SDS011;24727;51.974;20.868;2023-06-04T02:46:55;6.38;;;3.83;;
38937;SDS011;24727;51.974;20.868;2023-06-04T02:49:23;7.43;;;3.60;;
38937;SDS011;24727;51.974;20.868;2023-06-04T02:51:50;7.43;;;4.40;;
38937;SDS011;24727;51.974;20.868;2023-06-04T02:54:16;9.00;;;3.50;;
38937;SDS011;24727;51.974;20.868;2023-06-04T02:56:42;7.38;;;3.60;;
38937;SDS011;24727;51.974;20.868;2023-06-04T02:59:09;4.38;;;3.03;;
38937;SDS011;24727;51.974;20.868;2023-06-04T03:01:35;7.28;;;4.05;;
38937;SDS011;24727;51.974;20.868;2023-06-04T03:04:01;6.90;;;3.80;;
38937;SDS011;24727;51.974;20.868;2023-06-04T03:06:35;6.45;;;3.78;;
38937;SDS011;24727;51.974;20.868;2023-06-04T03:09:05;5.88;;;3.83;;
38937;SDS011;24727;51.974;20.868;2023-06-04T03:11:32;10.05;;;4.82;;
38937;SDS011;24727;51.974;20.868;2023-06-04T03:13:58;5.50;;;3.75;;
38937;SDS011;24727;51.974;20.868;2023-06-04T03:16:24;8.15;;;4.18;;
38937;SDS011;24727;51.974;20.868;2023-06-04T03:18:52;6.38;;;3.63;;
38937;SDS011;24727;51.974;20.868;2023-06-04T03:21:18;6.82;;;3.70;;
38937;SDS011;24727;51.974;20.868;2023-06-04T03:23:45;9.80;;;3.60;;
38937;SDS011;24727;51.974;20.868;2023-06-04T03:26:11;7.15;;;4.45;;
38937;SDS011;24727;51.974;20.868;2023-06-04T03:28:38;8.25;;;4.47;;
38937;SDS011;24727;51.974;20.868;2023-06-04T03:31:04;8.43;;;4.80;;
38937;SDS011;24727;51.974;20.868;2023-06-04T03:33:30;5.97;;;3.90;;
38937;SDS011;24727;51.974;20.868;2023-06-04T03:35:56;8.25;;;4.68;;
38937;SDS011;24727;51.974;20.868;2023-06-04T03:38:26;7.85;;;3.53;;
38937;SDS011;24727;51.974;20.868;2023-06-04T03:40:53;5.88;;;4.07;;
38937;SDS011;24727;51.974;20.868;2023-06-04T03:43:21;9.75;;;4.97;;
38937;SDS011;24727;51.974;20.868;2023-06-04T03:45:49;7.50;;;4.45;;
38937;SDS011;24727;51.974;20.868;2023-06-04T03:48:15;8.32;;;4.97;;
38937;SDS011;24727;51.974;20.868;2023-06-04T03:50:42;6.85;;;4.45;;
38937;SDS011;24727;51.974;20.868;2023-06-04T03:53:11;8.02;;;4.40;;
38937;SDS011;24727;51.974;20.868;2023-06-04T03:55:38;8.57;;;4.72;;
38937;SDS011;24727;51.974;20.868;2023-06-04T03:58:04;10.75;;;4.63;;
38937;SDS011;24727;51.974;20.868;2023-06-04T04:00:31;7.28;;;4.10;;
38937;SDS011;24727;51.974;20.868;2023-06-04T04:02:57;7.38;;;4.00;;
38937;SDS011;24727;51.974;20.868;2023-06-04T04:05:24;8.23;;;4.07;;
38937;SDS011;24727;51.974;20.868;2023-06-04T04:07:52;8.60;;;4.30;;
38937;SDS011;24727;51.974;20.868;2023-06-04T04:10:18;7.85;;;4.32;;
38937;SDS011;24727;51.974;20.868;2023-06-04T04:12:50;9.45;;;4.50;;
38937;SDS011;24727;51.974;20.868;2023-06-04T04:15:17;7.35;;;4.05;;
38937;SDS011;24727;51.974;20.868;2023-06-04T04:17:43;6.35;;;4.18;;
38937;SDS011;24727;51.974;20.868;2023-06-04T04:20:10;5.57;;;3.40;;
38937;SDS011;24727;51.974;20.868;2023-06-04T04:22:39;7.00;;;4.15;;
38937;SDS011;24727;51.974;20.868;2023-06-04T04:25:06;7.93;;;3.70;;
38937;SDS011;24727;51.974;20.868;2023-06-04T04:27:33;5.25;;;3.63;;
38937;SDS011;24727;51.974;20.868;2023-06-04T04:30:04;6.35;;;3.45;;
38937;SDS011;24727;51.974;20.868;2023-06-04T04:32:31;13.88;;;3.35;;
38937;SDS011;24727;51.974;20.868;2023-06-04T04:34:57;5.63;;;3.03;;
38937;SDS011;24727;51.974;20.868;2023-06-04T04:37:24;8.30;;;3.58;;
38937;SDS011;24727;51.974;20.868;2023-06-04T04:39:51;4.47;;;2.50;;
38937;SDS011;24727;51.974;20.868;2023-06-04T04:42:18;4.40;;;3.13;;
38937;SDS011;24727;51.974;20.868;2023-06-04T04:44:53;5.53;;;3.05;;
38937;SDS011;24727;51.974;20.868;2023-06-04T04:47:20;4.85;;;2.70;;
38937;SDS011;24727;51.974;20.868;2023-06-04T04:49:47;4.95;;;2.60;;
38937;SDS011;24727;51.974;20.868;2023-06-04T04:52:14;4.85;;;2.60;;
38937;SDS011;24727;51.974;20.868;2023-06-04T04:54:40;4.53;;;2.33;;
38937;SDS011;24727;51.974;20.868;2023-06-04T04:57:06;5.65;;;2.40;;
38937;SDS011;24727;51.974;20.868;2023-06-04T04:59:32;3.85;;;1.90;;
38937;SDS011;24727;51.974;20.868;2023-06-04T05:01:59;5.70;;;2.60;;
38937;SDS011;24727;51.974;20.868;2023-06-04T05:04:25;4.80;;;2.45;;
38937;SDS011;24727;51.974;20.868;2023-06-04T05:06:51;4.53;;;2.17;;
38937;SDS011;24727;51.974;20.868;2023-06-04T05:09:17;4.32;;;2.20;;
38937;SDS011;24727;51.974;20.868;2023-06-04T05:11:43;6.43;;;2.25;;
38937;SDS011;24727;51.974;20.868;2023-06-04T05:14:09;5.00;;;2.40;;
38937;SDS011;24727;51.974;20.868;2023-06-04T05:16:37;7.85;;;2.50;;
38937;SDS011;24727;51.974;20.868;2023-06-04T05:19:03;5.10;;;2.20;;
38937;SDS011;24727;51.974;20.868;2023-06-04T05:21:29;3.50;;;2.33;;
38937;SDS011;24727;51.974;20.868;2023-06-04T05:23:57;3.22;;;2.08;;
38937;SDS011;24727;51.974;20.868;2023-06-04T05:26:23;5.63;;;2.10;;
38937;SDS011;24727;51.974;20.868;2023-06-04T05:28:52;4.35;;;2.35;;
38937;SDS011;24727;51.974;20.868;2023-06-04T05:31:19;6.10;;;2.15;;
38937;SDS011;24727;51.974;20.868;2023-06-04T05:33:47;3.63;;;2.35;;
38937;SDS011;24727;51.974;20.868;2023-06-04T05:36:14;5.88;;;2.38;;
38937;SDS011;24727;51.974;20.868;2023-06-04T05:38:41;3.60;;;2.00;;
38937;SDS011;24727;51.974;20.868;2023-06-04T05:41:07;4.22;;;2.50;;
38937;SDS011;24727;51.974;20.868;2023-06-04T05:43:34;3.08;;;1.80;;
38937;SDS011;24727;51.974;20.868;2023-06-04T05:46:00;3.05;;;2.17;;
38937;SDS011;24727;51.974;20.868;2023-06-04T05:48:26;3.13;;;1.85;;
38937;SDS011;24727;51.974;20.868;2023-06-04T05:50:52;3.55;;;2.00;;
38937;SDS011;24727;51.974;20.868;2023-06-04T05:53:19;4.80;;;1.90;;
38937;SDS011;24727;51.974;20.868;2023-06-04T05:55:46;5.93;;;2.15;;
38937;SDS011;24727;51.974;20.868;2023-06-04T05:58:12;3.75;;;2.10;;
38937;SDS011;24727;51.974;20.868;2023-06-04T06:00:38;2.95;;;1.98;;
38937;SDS011;24727;51.974;20.868;2023-06-04T06:03:04;4.57;;;2.00;;
38937;SDS011;24727;51.974;20.868;2023-06-04T06:05:31;3.47;;;2.00;;
38937;SDS011;24727;51.974;20.868;2023-06-04T06:07:57;2.70;;;1.48;;
38937;SDS011;24727;51.974;20.868;2023-06-04T06:10:23;2.42;;;1.55;;
38937;SDS011;24727;51.974;20.868;2023-06-04T06:12:49;4.53;;;1.90;;
38937;SDS011;24727;51.974;20.868;2023-06-04T06:15:16;3.22;;;1.67;;
38937;SDS011;24727;51.974;20.868;2023-06-04T06:17:43;2.58;;;1.80;;
38937;SDS011;24727;51.974;20.868;2023-06-04T06:20:09;2.20;;;1.23;;
38937;SDS011;24727;51.974;20.868;2023-06-04T06:22:36;4.25;;;1.60;;
38937;SDS011;24727;51.974;20.868;2023-06-04T06:25:04;1.60;;;1.20;;
38937;SDS011;24727;51.974;20.868;2023-06-04T06:27:32;3.17;;;1.17;;
38937;SDS011;24727;51.974;20.868;2023-06-04T06:29:58;1.63;;;1.35;;
38937;SDS011;24727;51.974;20.868;2023-06-04T06:32:23;2.88;;;1.33;;
38937;SDS011;24727;51.974;20.868;2023-06-04T06:34:50;2.25;;;1.10;;
38937;SDS011;24727;51.974;20.868;2023-06-04T06:37:16;2.55;;;1.13;;
38937;SDS011;24727;51.974;20.868;2023-06-04T06:39:42;1.75;;;1.02;;
38937;SDS011;24727;51.974;20.868;2023-06-04T06:42:08;3.50;;;1.05;;
38937;SDS011;24727;51.974;20.868;2023-06-04T06:46:51;2.05;;;1.23;;
38937;SDS011;24727;51.974;20.868;2023-06-04T06:49:17;5.88;;;1.20;;
38937;SDS011;24727;51.974;20.868;2023-06-04T06:51:43;1.27;;;0.90;;
38937;SDS011;24727;51.974;20.868;2023-06-04T06:54:10;1.67;;;1.00;;
38937;SDS011;24727;51.974;20.868;2023-06-04T06:56:40;1.52;;;0.85;;
38937;SDS011;24727;51.974;20.868;2023-06-04T06:59:06;2.42;;;1.00;;
38937;SDS011;24727;51.974;20.868;2023-06-04T07:01:33;3.03;;;0.70;;
38937;SDS011;24727;51.974;20.868;2023-06-04T07:03:59;2.05;;;0.90;;
38937;SDS011;24727;51.974;20.868;2023-06-04T07:06:26;0.65;;;0.60;;
38937;SDS011;24727;51.974;20.868;2023-06-04T07:08:52;2.08;;;0.88;;
38937;SDS011;24727;51.974;20.868;2023-06-04T07:11:19;5.65;;;0.90;;
38937;SDS011;24727;51.974;20.868;2023-06-04T07:13:45;1.02;;;0.55;;
38937;SDS011;24727;51.974;20.868;2023-06-04T07:16:11;2.03;;;0.77;;
38937;SDS011;24727;51.974;20.868;2023-06-04T07:18:37;0.95;;;0.70;;
38937;SDS011;24727;51.974;20.868;2023-06-04T07:21:03;1.83;;;0.80;;
38937;SDS011;24727;51.974;20.868;2023-06-04T07:23:31;1.42;;;0.65;;
38937;SDS011;24727;51.974;20.868;2023-06-04T07:25:57;5.25;;;0.50;;
38937;SDS011;24727;51.974;20.868;2023-06-04T07:28:23;2.47;;;0.30;;
38937;SDS011;24727;51.974;20.868;2023-06-04T07:30:50;1.02;;;0.70;;
38937;SDS011;24727;51.974;20.868;2023-06-04T07:33:17;1.80;;;0.70;;
38937;SDS011;24727;51.974;20.868;2023-06-04T07:35:43;1.88;;;0.52;;
38937;SDS011;24727;51.974;20.868;2023-06-04T07:38:10;2.80;;;0.68;;
38937;SDS011;24727;51.974;20.868;2023-06-04T07:40:36;0.52;;;0.50;;
38937;SDS011;24727;51.974;20.868;2023-06-04T07:43:02;0.40;;;0.40;;
38937;SDS011;24727;51.974;20.868;2023-06-04T07:45:28;2.10;;;0.47;;
38937;SDS011;24727;51.974;20.868;2023-06-04T07:47:56;0.80;;;0.40;;
38937;SDS011;24727;51.974;20.868;2023-06-04T07:50:23;1.90;;;0.57;;
38937;SDS011;24727;51.974;20.868;2023-06-04T07:52:51;1.95;;;0.50;;
38937;SDS011;24727;51.974;20.868;2023-06-04T07:55:17;1.20;;;0.52;;
38937;SDS011;24727;51.974;20.868;2023-06-04T07:57:43;1.38;;;0.30;;
38937;SDS011;24727;51.974;20.868;2023-06-04T08:00:10;1.73;;;0.60;;
38937;SDS011;24727;51.974;20.868;2023-06-04T08:02:37;2.92;;;0.40;;
38937;SDS011;24727;51.974;20.868;2023-06-04T08:05:03;0.40;;;0.38;;
38937;SDS011;24727;51.974;20.868;2023-06-04T08:07:31;3.35;;;0.40;;
38937;SDS011;24727;51.974;20.868;2023-06-04T08:09:57;1.02;;;0.52;;
38937;SDS011;24727;51.974;20.868;2023-06-04T08:12:23;0.65;;;0.32;;
38937;SDS011;24727;51.974;20.868;2023-06-04T08:14:48;3.25;;;0.40;;
38937;SDS011;24727;51.974;20.868;2023-06-04T08:17:22;3.38;;;0.40;;
38937;SDS011;24727;51.974;20.868;2023-06-04T08:19:47;1.23;;;0.50;;
38937;SDS011;24727;51.974;20.868;2023-06-04T08:22:13;0.98;;;0.50;;
38937;SDS011;24727;51.974;20.868;2023-06-04T08:24:41;1.75;;;0.30;;
38937;SDS011;24727;51.974;20.868;2023-06-04T08:27:09;3.40;;;0.50;;
38937;SDS011;24727;51.974;20.868;2023-06-04T08:29:35;2.70;;;0.40;;
38937;SDS011;24727;51.974;20.868;2023-06-04T08:32:02;1.10;;;0.38;;
38937;SDS011;24727;51.974;20.868;2023-06-04T08:34:29;2.13;;;0.40;;
38937;SDS011;24727;51.974;20.868;2023-06-04T08:36:55;4.20;;;0.38;;
38937;SDS011;24727;51.974;20.868;2023-06-04T08:39:22;2.42;;;0.50;;
38937;SDS011;24727;51.974;20.868;2023-06-04T08:41:49;3.00;;;0.38;;
38937;SDS011;24727;51.974;20.868;2023-06-04T08:44:17;1.15;;;0.40;;
38937;SDS011;24727;51.974;20.868;2023-06-04T08:46:51;0.47;;;0.30;;
38937;SDS011;24727;51.974;20.868;2023-06-04T08:49:19;0.98;;;0.40;;
38937;SDS011;24727;51.974;20.868;2023-06-04T08:51:47;0.80;;;0.32;;
38937;SDS011;24727;51.974;20.868;2023-06-04T08:54:14;0.60;;;0.30;;
38937;SDS011;24727;51.974;20.868;2023-06-04T08:56:40;0.50;;;0.30;;
38937;SDS011;24727;51.974;20.868;2023-06-04T08:59:07;0.68;;;0.30;;
38937;SDS011;24727;51.974;20.868;2023-06-04T09:01:36;0.93;;;0.32;;
38937;SDS011;24727;51.974;20.868;2023-06-04T09:04:07;3.45;;;0.40;;
38937;SDS011;24727;51.974;20.868;2023-06-04T09:06:33;0.40;;;0.30;;
38937;SDS011;24727;51.974;20.868;2023-06-04T09:09:02;1.67;;;0.32;;
38937;SDS011;24727;51.974;20.868;2023-06-04T09:11:33;2.53;;;0.35;;
38937;SDS011;24727;51.974;20.868;2023-06-04T09:14:07;1.30;;;0.40;;
38937;SDS011;24727;51.974;20.868;2023-06-04T09:16:53;1.50;;;0.40;;
38937;SDS011;24727;51.974;20.868;2023-06-04T09:19:20;2.38;;;0.40;;
38937;SDS011;24727;51.974;20.868;2023-06-04T09:21:59;0.52;;;0.47;;
38937;SDS011;24727;51.974;20.868;2023-06-04T09:24:41;3.38;;;0.30;;
38937;SDS011;24727;51.974;20.868;2023-06-04T09:27:14;1.27;;;0.40;;
38937;SDS011;24727;51.974;20.868;2023-06-04T09:29:54;1.25;;;0.30;;
38937;SDS011;24727;51.974;20.868;2023-06-04T09:32:25;1.02;;;0.40;;
38937;SDS011;24727;51.974;20.868;2023-06-04T09:34:53;1.48;;;0.70;;
38937;SDS011;24727;51.974;20.868;2023-06-04T09:37:20;0.93;;;0.47;;
38937;SDS011;24727;51.974;20.868;2023-06-04T09:39:57;1.92;;;0.35;;
38937;SDS011;24727;51.974;20.868;2023-06-04T09:42:25;0.52;;;0.40;;
38937;SDS011;24727;51.974;20.868;2023-06-04T09:44:51;1.70;;;0.50;;
38937;SDS011;24727;51.974;20.868;2023-06-04T09:47:19;0.75;;;0.40;;
38937;SDS011;24727;51.974;20.868;2023-06-04T09:49:46;0.85;;;0.45;;
38937;SDS011;24727;51.974;20.868;2023-06-04T09:52:16;0.95;;;0.50;;
38937;SDS011;24727;51.974;20.868;2023-06-04T09:54:42;0.73;;;0.30;;
38937;SDS011;24727;51.974;20.868;2023-06-04T09:57:15;4.55;;;0.40;;
38937;SDS011;24727;51.974;20.868;2023-06-04T09:59:43;0.38;;;0.32;;
38937;SDS011;24727;51.974;20.868;2023-06-04T10:02:11;2.38;;;0.55;;
38937;SDS011;24727;51.974;20.868;2023-06-04T10:04:41;0.77;;;0.40;;
38937;SDS011;24727;51.974;20.868;2023-06-04T10:07:08;0.30;;;0.30;;
38937;SDS011;24727;51.974;20.868;2023-06-04T10:09:38;0.50;;;0.35;;
38937;SDS011;24727;51.974;20.868;2023-06-04T10:12:14;0.32;;;0.22;;
38937;SDS011;24727;51.974;20.868;2023-06-04T10:14:45;0.43;;;0.30;;
38937;SDS011;24727;51.974;20.868;2023-06-04T10:17:17;0.88;;;0.30;;
38937;SDS011;24727;51.974;20.868;2023-06-04T10:19:46;0.57;;;0.40;;
38937;SDS011;24727;51.974;20.868;2023-06-04T10:22:17;0.90;;;0.30;;
38937;SDS011;24727;51.974;20.868;2023-06-04T10:24:43;3.25;;;0.30;;
38937;SDS011;24727;51.974;20.868;2023-06-04T10:27:10;0.82;;;0.40;;
38937;SDS011;24727;51.974;20.868;2023-06-04T10:29:38;1.23;;;0.40;;
38937;SDS011;24727;51.974;20.868;2023-06-04T10:32:05;3.88;;;0.35;;
38937;SDS011;24727;51.974;20.868;2023-06-04T10:34:32;0.63;;;0.40;;
38937;SDS011;24727;51.974;20.868;2023-06-04T10:36:59;2.70;;;0.40;;
38937;SDS011;24727;51.974;20.868;2023-06-04T10:39:29;0.47;;;0.17;;
38937;SDS011;24727;51.974;20.868;2023-06-04T10:44:29;0.50;;;0.30;;
38937;SDS011;24727;51.974;20.868;2023-06-04T10:46:56;1.75;;;0.38;;
38937;SDS011;24727;51.974;20.868;2023-06-04T10:49:29;5.03;;;0.47;;
38937;SDS011;24727;51.974;20.868;2023-06-04T10:51:57;1.42;;;1.15;;
38937;SDS011;24727;51.974;20.868;2023-06-04T10:56:54;0.75;;;0.20;;
38937;SDS011;24727;51.974;20.868;2023-06-04T10:59:21;0.85;;;0.30;;
38937;SDS011;24727;51.974;20.868;2023-06-04T11:01:50;0.55;;;0.30;;
38937;SDS011;24727;51.974;20.868;2023-06-04T11:06:46;2.25;;;0.40;;
38937;SDS011;24727;51.974;20.868;2023-06-04T11:09:13;0.68;;;0.25;;
38937;SDS011;24727;51.974;20.868;2023-06-04T11:11:43;1.67;;;0.40;;
38937;SDS011;24727;51.974;20.868;2023-06-04T11:14:10;2.40;;;0.40;;
38937;SDS011;24727;51.974;20.868;2023-06-04T11:16:42;0.90;;;0.40;;
38937;SDS011;24727;51.974;20.868;2023-06-04T11:19:08;1.60;;;0.40;;
38937;SDS011;24727;51.974;20.868;2023-06-04T11:21:34;0.73;;;0.30;;
38937;SDS011;24727;51.974;20.868;2023-06-04T11:24:04;2.05;;;0.40;;
38937;SDS011;24727;51.974;20.868;2023-06-04T11:26:31;0.93;;;0.40;;
38937;SDS011;24727;51.974;20.868;2023-06-04T11:28:58;3.05;;;1.15;;
38937;SDS011;24727;51.974;20.868;2023-06-04T11:31:24;1.15;;;0.30;;
38937;SDS011;24727;51.974;20.868;2023-06-04T11:33:50;1.88;;;0.45;;
38937;SDS011;24727;51.974;20.868;2023-06-04T11:36:24;1.77;;;0.43;;
38937;SDS011;24727;51.974;20.868;2023-06-04T11:39:00;2.20;;;0.40;;
38937;SDS011;24727;51.974;20.868;2023-06-04T11:41:31;3.28;;;0.40;;
38937;SDS011;24727;51.974;20.868;2023-06-04T11:44:00;0.30;;;0.20;;
38937;SDS011;24727;51.974;20.868;2023-06-04T11:46:33;0.28;;;0.20;;
38937;SDS011;24727;51.974;20.868;2023-06-04T11:49:00;2.05;;;0.30;;
38937;SDS011;24727;51.974;20.868;2023-06-04T11:51:27;0.30;;;0.30;;
38937;SDS011;24727;51.974;20.868;2023-06-04T11:53:56;2.05;;;0.30;;
38937;SDS011;24727;51.974;20.868;2023-06-04T11:56:23;1.65;;;0.30;;
38937;SDS011;24727;51.974;20.868;2023-06-04T11:58:51;1.20;;;0.30;;
38937;SDS011;24727;51.974;20.868;2023-06-04T12:01:20;2.20;;;0.50;;
38937;SDS011;24727;51.974;20.868;2023-06-04T12:03:46;35.25;;;1.45;;
38937;SDS011;24727;51.974;20.868;2023-06-04T12:06:15;1.30;;;0.40;;
38937;SDS011;24727;51.974;20.868;2023-06-04T12:08:53;0.32;;;0.20;;
38937;SDS011;24727;51.974;20.868;2023-06-04T12:11:33;0.50;;;0.30;;
38937;SDS011;24727;51.974;20.868;2023-06-04T12:16:31;0.20;;;0.20;;
38937;SDS011;24727;51.974;20.868;2023-06-04T12:19:08;0.30;;;0.30;;
38937;SDS011;24727;51.974;20.868;2023-06-04T12:21:36;0.57;;;0.20;;
38937;SDS011;24727;51.974;20.868;2023-06-04T12:24:08;0.50;;;0.30;;
38937;SDS011;24727;51.974;20.868;2023-06-04T12:26:39;1.23;;;0.30;;
38937;SDS011;24727;51.974;20.868;2023-06-04T12:29:12;0.80;;;0.30;;
38937;SDS011;24727;51.974;20.868;2023-06-04T12:31:40;1.48;;;0.30;;
38937;SDS011;24727;51.974;20.868;2023-06-04T12:34:07;5.10;;;0.47;;
38937;SDS011;24727;51.974;20.868;2023-06-04T12:36:34;1.08;;;0.40;;
38937;SDS011;24727;51.974;20.868;2023-06-04T12:39:01;0.52;;;0.30;;
38937;SDS011;24727;51.974;20.868;2023-06-04T12:41:31;1.10;;;0.30;;
38937;SDS011;24727;51.974;20.868;2023-06-04T12:43:59;0.60;;;0.20;;
38937;SDS011;24727;51.974;20.868;2023-06-04T12:46:26;0.60;;;0.30;;
38937;SDS011;24727;51.974;20.868;2023-06-04T12:48:54;2.08;;;0.40;;
38937;SDS011;24727;51.974;20.868;2023-06-04T12:51:20;0.95;;;0.30;;
38937;SDS011;24727;51.974;20.868;2023-06-04T12:53:47;0.95;;;0.25;;
38937;SDS011;24727;51.974;20.868;2023-06-04T12:56:15;2.75;;;0.30;;
38937;SDS011;24727;51.974;20.868;2023-06-04T12:58:41;0.55;;;0.32;;
38937;SDS011;24727;51.974;20.868;2023-06-04T13:01:08;2.92;;;0.30;;
38937;SDS011;24727;51.974;20.868;2023-06-04T13:03:36;0.32;;;0.20;;
38937;SDS011;24727;51.974;20.868;2023-06-04T13:06:04;1.55;;;0.35;;
38937;SDS011;24727;51.974;20.868;2023-06-04T13:08:31;3.50;;;0.20;;
38937;SDS011;24727;51.974;20.868;2023-06-04T13:10:58;7.78;;;1.75;;
38937;SDS011;24727;51.974;20.868;2023-06-04T13:13:24;2.80;;;0.30;;
38937;SDS011;24727;51.974;20.868;2023-06-04T13:15:51;0.40;;;0.35;;
38937;SDS011;24727;51.974;20.868;2023-06-04T13:20:49;0.30;;;0.30;;
38937;SDS011;24727;51.974;20.868;2023-06-04T13:23:16;0.30;;;0.28;;
38937;SDS011;24727;51.974;20.868;2023-06-04T13:25:43;1.55;;;0.30;;
38937;SDS011;24727;51.974;20.868;2023-06-04T13:28:09;1.05;;;0.30;;
38937;SDS011;24727;51.974;20.868;2023-06-04T13:30:35;1.95;;;0.40;;
38937;SDS011;24727;51.974;20.868;2023-06-04T13:33:07;1.33;;;0.30;;
38937;SDS011;24727;51.974;20.868;2023-06-04T13:35:34;2.15;;;0.40;;
38937;SDS011;24727;51.974;20.868;2023-06-04T13:38:01;2.20;;;0.45;;
38937;SDS011;24727;51.974;20.868;2023-06-04T13:42:03;2.00;;;0.30;;
38937;SDS011;24727;51.974;20.868;2023-06-04T13:44:30;0.50;;;0.38;;
38937;SDS011;24727;51.974;20.868;2023-06-04T13:46:58;0.75;;;0.40;;
38937;SDS011;24727;51.974;20.868;2023-06-04T13:49:34;1.45;;;0.43;;
38937;SDS011;24727;51.974;20.868;2023-06-04T13:52:01;0.68;;;0.20;;
38937;SDS011;24727;51.974;20.868;2023-06-04T13:54:27;0.85;;;0.50;;
38937;SDS011;24727;51.974;20.868;2023-06-04T13:56:53;1.17;;;0.50;;
38937;SDS011;24727;51.974;20.868;2023-06-04T13:59:20;0.40;;;0.30;;
38937;SDS011;24727;51.974;20.868;2023-06-04T14:01:47;1.95;;;0.20;;
38937;SDS011;24727;51.974;20.868;2023-06-04T14:04:13;0.55;;;0.30;;
38937;SDS011;24727;51.974;20.868;2023-06-04T14:06:39;1.98;;;0.20;;
38937;SDS011;24727;51.974;20.868;2023-06-04T14:09:06;1.92;;;0.40;;
38937;SDS011;24727;51.974;20.868;2023-06-04T14:11:32;0.30;;;0.30;;
38937;SDS011;24727;51.974;20.868;2023-06-04T14:13:58;0.50;;;0.30;;
38937;SDS011;24727;51.974;20.868;2023-06-04T14:16:25;1.58;;;0.43;;
38937;SDS011;24727;51.974;20.868;2023-06-04T14:18:51;2.13;;;0.28;;
38937;SDS011;24727;51.974;20.868;2023-06-04T14:21:17;0.88;;;0.40;;
38937;SDS011;24727;51.974;20.868;2023-06-04T14:23:43;0.65;;;0.40;;
38937;SDS011;24727;51.974;20.868;2023-06-04T14:26:10;1.33;;;0.30;;
38937;SDS011;24727;51.974;20.868;2023-06-04T14:28:37;1.98;;;0.30;;
38937;SDS011;24727;51.974;20.868;2023-06-04T14:31:03;2.05;;;0.65;;
38937;SDS011;24727;51.974;20.868;2023-06-04T14:33:28;0.65;;;0.40;;
38937;SDS011;24727;51.974;20.868;2023-06-04T14:35:54;3.30;;;0.70;;
38937;SDS011;24727;51.974;20.868;2023-06-04T14:38:21;2.33;;;0.32;;
38937;SDS011;24727;51.974;20.868;2023-06-04T14:40:47;0.55;;;0.30;;
38937;SDS011;24727;51.974;20.868;2023-06-04T14:43:13;0.32;;;0.30;;
38937;SDS011;24727;51.974;20.868;2023-06-04T14:45:40;2.22;;;0.30;;
38937;SDS011;24727;51.974;20.868;2023-06-04T14:48:06;0.90;;;0.40;;
38937;SDS011;24727;51.974;20.868;2023-06-04T14:50:32;2.97;;;0.40;;
38937;SDS011;24727;51.974;20.868;2023-06-04T14:52:59;0.47;;;0.38;;
38937;SDS011;24727;51.974;20.868;2023-06-04T14:55:26;0.70;;;0.30;;
38937;SDS011;24727;51.974;20.868;2023-06-04T14:57:52;1.35;;;0.28;;
38937;SDS011;24727;51.974;20.868;2023-06-04T15:00:18;6.85;;;0.50;;
38937;SDS011;24727;51.974;20.868;2023-06-04T15:02:43;2.70;;;0.52;;